Time;durP1;ratioP1;P1;durP2;ratioP2;P2;SDS_P1;SDS_P2;PMS_P1;PMS_P2;Temp;Humidity;BMP_temperature;BMP_pressure;BME280_temperature;BME280_humidity;BME280_pressure;Samples;Min_cycle;Max_cycle;Signal;HPM_P1;HPM_P2
2023/03/28 00:01:00;;;;;;;1.80;0.68;;;;;;;19.45;37.80;101414.31;5073596;28;20053;-51
2023/03/28 00:03:28;;;;;;;2.83;0.57;;;;;;;19.44;37.93;101412.56;5073255;28;20494;-49
2023/03/28 00:05:59;;;;;;;1.80;0.70;;;;;;;19.44;37.85;101412.56;5073406;28;20478;-50
2023/03/28 00:08:28;;;;;;;1.60;0.60;;;;;;;19.43;37.74;101417.09;5073582;28;20052;-50
2023/03/28 00:11:08;;;;;;;1.52;0.52;;;;;;;19.43;37.66;101426.97;5073202;28;20047;-49
2023/03/28 00:13:36;;;;;;;1.80;0.70;;;;;;;19.43;37.78;101416.25;5073652;28;20048;-49
2023/03/28 00:16:07;;;;;;;1.85;0.93;;;;;;;19.42;37.73;101420.75;5073663;28;20383;-50
2023/03/28 00:18:38;;;;;;;2.53;0.90;;;;;;;19.42;37.78;101423.44;5073638;28;20048;-50
2023/03/28 00:21:19;;;;;;;3.13;0.98;;;;;;;19.42;37.80;101426.13;5073708;28;20063;-50
2023/03/28 00:23:51;;;;;;;0.95;0.35;;;;;;;19.42;37.77;101426.13;5073537;28;20052;-50
2023/03/28 00:26:20;;;;;;;1.10;0.40;;;;;;;19.41;37.93;101429.78;5073442;28;20051;-48
2023/03/28 00:28:48;;;;;;;2.53;0.40;;;;;;;19.41;37.76;101431.63;5073384;28;20052;-50
2023/03/28 00:31:15;;;;;;;2.95;0.60;;;;;;;19.41;37.69;101434.31;5073445;28;20045;-50
2023/03/28 00:33:46;;;;;;;1.92;0.73;;;;;;;19.41;37.84;101435.16;5075164;28;20490;-49
2023/03/28 00:36:17;;;;;;;1.00;0.47;;;;;;;19.42;37.62;101438.69;5077006;28;20483;-50
2023/03/28 00:38:44;;;;;;;1.25;0.60;;;;;;;19.41;37.84;101445.06;5077213;28;20071;-49
2023/03/28 00:41:14;;;;;;;1.45;0.50;;;;;;;19.41;37.92;101445.06;5077157;28;20048;-49
2023/03/28 00:43:44;;;;;;;1.70;0.60;;;;;;;19.40;37.86;101449.53;5076095;28;20056;-49
2023/03/28 00:46:21;;;;;;;1.40;0.70;;;;;;;19.41;37.80;101450.44;5077337;28;20055;-50
2023/03/28 00:49:02;;;;;;;1.45;0.73;;;;;;;19.40;38.01;101454.91;5077310;28;20048;-50
2023/03/28 00:51:35;;;;;;;2.00;0.80;;;;;;;19.40;37.96;101462.13;5076983;28;20052;-49
2023/03/28 00:54:06;;;;;;;2.20;0.85;;;;;;;19.40;37.84;101462.13;5076855;28;20049;-50
2023/03/28 00:56:36;;;;;;;3.15;0.65;;;;;;;19.39;37.89;101469.31;5076837;28;20056;-48
2023/03/28 00:59:10;;;;;;;1.77;0.50;;;;;;;19.39;37.77;101468.47;5076870;28;20044;-50
2023/03/28 01:01:38;;;;;;;2.65;0.85;;;;;;;19.39;37.89;101465.78;5075403;28;20067;-48
2023/03/28 01:04:08;;;;;;;1.17;0.50;;;;;;;19.37;37.97;101465.06;5077070;28;20049;-50
2023/03/28 01:06:46;;;;;;;1.50;0.60;;;;;;;19.37;37.92;101470.44;5075355;28;20055;-50
2023/03/28 01:09:18;;;;;;;2.55;0.70;;;;;;;19.38;37.82;101474.81;5076579;28;20052;-49
2023/03/28 01:11:50;;;;;;;2.17;0.55;;;;;;;19.38;37.83;101480.19;5075203;28;20075;-49
2023/03/28 01:14:21;;;;;;;1.15;0.45;;;;;;;19.36;37.92;101472.22;5075645;28;20056;-48
2023/03/28 01:16:51;;;;;;;2.85;0.80;;;;;;;19.37;37.94;101473.13;5075228;28;20063;-50
2023/03/28 01:19:43;;;;;;;3.58;0.75;;;;;;;19.36;37.97;101484.81;5075232;28;20056;-49
2023/03/28 01:22:38;;;;;;;1.27;0.50;;;;;;;19.36;37.91;101479.44;5075189;28;20053;-49
2023/03/28 01:25:37;;;;;;;0.68;0.20;;;;;;;19.36;37.85;101487.47;5074967;28;20064;-49
2023/03/28 01:28:30;;;;;;;1.83;0.73;;;;;;;19.35;38.02;101483.94;5074776;28;20487;-49
2023/03/28 01:31:53;;;;;;;1.23;0.47;;;;;;;19.35;37.85;101483.09;5075183;28;20048;-49
2023/03/28 01:35:09;;;;;;;3.85;0.45;;;;;;;19.34;37.78;101484.06;5081068;28;20649;-50
2023/03/28 01:37:57;;;;;;;2.22;0.82;;;;;;;19.34;37.85;101487.63;5074012;28;20495;-50
2023/03/28 01:40:34;;;;;;;2.00;0.65;;;;;;;19.33;37.93;101491.28;5073186;28;20053;-49
2023/03/28 01:43:22;;;;;;;1.75;0.73;;;;;;;19.33;37.87;101487.75;5075074;28;20063;-49
2023/03/28 01:46:01;;;;;;;1.23;0.50;;;;;;;19.32;38.07;101489.53;5074985;28;20048;-52
2023/03/28 01:49:03;;;;;;;1.15;0.68;;;;;;;19.32;37.96;101488.69;5074829;28;20063;-50
2023/03/28 01:51:59;;;;;;;1.80;0.60;;;;;;;19.32;37.84;101491.38;5074813;28;20044;-51
2023/03/28 01:54:43;;;;;;;1.30;0.60;;;;;;;19.31;37.94;101492.34;5075879;28;20052;-49
2023/03/28 01:57:28;;;;;;;2.60;0.60;;;;;;;19.31;37.94;101493.22;5075843;28;20041;-51
2023/03/28 02:00:11;;;;;;;1.70;0.75;;;;;;;19.31;37.99;101500.41;5074856;28;20060;-49
2023/03/28 02:03:01;;;;;;;2.60;0.70;;;;;;;19.31;37.77;101492.34;5082594;28;20111;-49
2023/03/28 02:05:36;;;;;;;1.13;0.45;;;;;;;19.31;37.89;101500.41;5074664;28;20059;-49
2023/03/28 02:08:09;;;;;;;1.55;0.70;;;;;;;19.30;37.98;101496.03;5074326;28;20052;-50
2023/03/28 02:10:43;;;;;;;1.52;0.60;;;;;;;19.30;37.94;101498.69;5074212;28;20052;-48
2023/03/28 02:13:35;;;;;;;1.55;0.73;;;;;;;19.29;37.82;101505.91;5082219;28;20071;-49
2023/03/28 02:16:23;;;;;;;1.02;0.40;;;;;;;19.28;38.08;101498.78;5082650;28;20403;-49
2023/03/28 02:19:11;;;;;;;1.83;0.50;;;;;;;19.29;38.01;101499.69;5082303;28;20410;-50
2023/03/28 02:22:14;;;;;;;1.17;0.40;;;;;;;19.28;37.71;101509.53;5075199;28;20044;-49
2023/03/28 02:24:52;;;;;;;2.70;0.52;;;;;;;19.29;37.80;101515.78;5074147;28;20048;-49
2023/03/28 02:27:38;;;;;;;0.98;0.50;;;;;;;19.27;38.07;101508.69;5074007;28;20483;-49
2023/03/28 02:30:38;;;;;;;1.98;0.80;;;;;;;19.29;38.21;101510.44;5074223;28;20071;-48
2023/03/28 02:33:27;;;;;;;1.80;0.55;;;;;;;19.28;38.13;101509.53;5073597;28;20045;-49
2023/03/28 02:36:07;;;;;;;1.83;0.52;;;;;;;19.29;38.24;101515.78;5073782;28;20040;-48
2023/03/28 02:38:49;;;;;;;1.27;0.55;;;;;;;19.29;38.50;101519.31;5074004;28;20498;-49
2023/03/28 02:41:44;;;;;;;2.58;0.65;;;;;;;19.29;38.54;101515.78;5075030;28;20110;-50
2023/03/28 02:44:39;;;;;;;2.90;0.70;;;;;;;19.30;38.82;101521.03;5073901;28;20048;-51
2023/03/28 02:47:20;;;;;;;5.07;0.95;;;;;;;19.30;38.51;101514.81;5073750;28;20056;-48
2023/03/28 02:50:09;;;;;;;5.07;1.05;;;;;;;19.31;38.40;101521.88;5074716;28;20048;-49
2023/03/28 02:53:01;;;;;;;1.42;0.50;;;;;;;19.30;38.45;101528.22;5074488;28;20056;-49
2023/03/28 02:55:39;;;;;;;2.00;0.60;;;;;;;19.29;38.17;101531.91;5073928;28;20533;-51
2023/03/28 02:58:46;;;;;;;1.58;0.65;;;;;;;19.29;38.25;101526.53;5073865;28;20289;-49
2023/03/28 03:01:13;;;;;;;2.60;0.70;;;;;;;19.29;38.10;101529.22;5073436;28;20044;-51
2023/03/28 03:03:42;;;;;;;3.40;0.90;;;;;;;19.27;38.30;101524.78;5074543;28;20059;-49
2023/03/28 03:06:11;;;;;;;1.40;0.95;;;;;;;19.28;38.01;101536.38;5074344;28;20375;-50
2023/03/28 03:08:38;;;;;;;1.67;0.55;;;;;;;19.26;38.48;101533.81;5073309;28;20053;-49
2023/03/28 03:11:06;;;;;;;2.55;0.63;;;;;;;19.27;38.80;101540.91;5073332;28;20075;-50
2023/03/28 03:13:33;;;;;;;1.55;0.68;;;;;;;19.27;38.69;101542.72;5074267;28;20387;-49
2023/03/28 03:16:02;;;;;;;3.78;0.75;;;;;;;19.27;38.81;101545.41;5074181;28;20052;-49
2023/03/28 03:18:31;;;;;;;2.58;0.90;;;;;;;19.27;38.52;101550.78;5073127;28;20060;-52
2023/03/28 03:21:00;;;;;;;2.10;1.10;;;;;;;19.26;38.61;101547.25;5073006;28;20059;-50
2023/03/28 03:23:28;;;;;;;4.25;0.90;;;;;;;19.26;38.41;101552.63;5074000;28;20060;-48
2023/03/28 03:25:57;;;;;;;1.55;0.63;;;;;;;19.26;38.39;101552.63;5072579;28;20070;-50
2023/03/28 03:28:43;;;;;;;2.92;0.80;;;;;;;19.25;38.38;101553.59;5073843;28;20056;-48
2023/03/28 03:31:10;;;;;;;4.20;0.82;;;;;;;19.25;38.24;101569.69;5072807;28;20052;-51
2023/03/28 03:33:47;;;;;;;4.80;1.50;;;;;;;19.25;37.83;101569.69;5080651;28;20056;-50
2023/03/28 03:36:17;;;;;;;2.67;0.70;;;;;;;19.24;38.26;101567.09;5072963;28;20055;-49
2023/03/28 03:38:46;;;;;;;3.70;1.25;;;;;;;19.25;38.21;101571.53;5072851;28;20379;-49
2023/03/28 03:41:19;;;;;;;2.83;1.02;;;;;;;19.23;38.12;101568.94;5072910;28;20048;-50
2023/03/28 03:43:47;;;;;;;3.30;0.88;;;;;;;19.23;38.25;101571.63;5072860;28;20059;-49
2023/03/28 03:46:15;;;;;;;2.72;0.85;;;;;;;19.22;38.11;101572.59;5073857;28;20047;-48
2023/03/28 03:48:43;;;;;;;3.25;0.90;;;;;;;19.22;38.04;101575.28;5072600;28;20057;-49
2023/03/28 03:51:16;;;;;;;1.92;0.82;;;;;;;19.21;38.12;101573.59;5072765;28;20403;-48
2023/03/28 03:53:45;;;;;;;2.65;0.80;;;;;;;19.22;38.12;101580.66;5072725;28;20410;-50
2023/03/28 03:56:16;;;;;;;3.15;0.80;;;;;;;19.20;37.97;101587.97;5072623;28;20037;-51
2023/03/28 03:58:57;;;;;;;2.30;0.95;;;;;;;19.22;38.35;101587.84;5072592;28;20053;-48
2023/03/28 04:01:33;;;;;;;1.50;0.55;;;;;;;19.20;38.11;101596.03;5072316;28;20068;-50
2023/03/28 04:04:27;;;;;;;4.10;0.73;;;;;;;19.20;37.99;101593.34;5073711;28;20048;-51
2023/03/28 04:07:13;;;;;;;;;;;;;;;19.20;38.21;101596.03;5071678;28;20060;-49
2023/03/28 04:09:41;;;;;;;1.05;0.45;;;;;;;19.20;38.24;101597.84;5072710;28;19931;-50
2023/03/28 04:12:10;;;;;;;2.22;0.80;;;;;;;19.19;38.15;101601.50;5056076;28;20049;-49
2023/03/28 04:14:45;;;;;;;2.30;0.90;;;;;;;19.19;38.22;101602.34;5072468;28;20085;-49
2023/03/28 04:17:40;;;;;;;3.20;0.80;;;;;;;19.19;38.15;101609.56;5072689;28;20053;-49
2023/03/28 04:20:14;;;;;;;1.88;0.90;;;;;;;19.18;38.18;101611.38;5072302;28;20044;-50
2023/03/28 04:23:08;;;;;;;2.45;0.82;;;;;;;19.18;38.04;101615.91;5073371;28;20060;-49
2023/03/28 04:25:40;;;;;;;2.53;0.57;;;;;;;19.17;38.16;101615.03;5072119;28;20052;-49
2023/03/28 04:28:18;;;;;;;1.70;0.60;;;;;;;19.16;38.09;101616.03;5071857;28;20044;-49
2023/03/28 04:31:03;;;;;;;2.15;0.93;;;;;;;19.17;38.03;101617.72;5071865;28;20131;-51
2023/03/28 04:33:52;;;;;;;1.80;0.70;;;;;;;19.16;38.11;101616.03;5080216;28;20060;-52
2023/03/28 04:36:24;;;;;;;2.78;0.90;;;;;;;19.15;38.08;101622.34;5073419;28;20041;-49
2023/03/28 04:39:01;;;;;;;1.85;0.80;;;;;;;19.15;38.04;101619.66;5072358;28;20044;-48
2023/03/28 04:41:47;;;;;;;1.58;0.65;;;;;;;19.15;38.06;101618.78;5080036;28;20051;-49
2023/03/28 04:44:35;;;;;;;3.03;1.00;;;;;;;19.15;38.08;101625.00;5072141;28;20053;-49
2023/03/28 04:47:07;;;;;;;1.92;0.77;;;;;;;19.14;38.04;101626.00;5072010;28;20047;-50
2023/03/28 04:49:35;;;;;;;2.58;0.82;;;;;;;19.14;38.11;101626.00;5072238;28;20053;-49
2023/03/28 04:52:03;;;;;;;2.45;0.88;;;;;;;19.14;37.97;101623.31;5073092;28;20053;-49
2023/03/28 04:54:31;;;;;;;3.83;0.85;;;;;;;19.14;37.97;101628.69;5071701;28;20048;-51
2023/03/28 04:57:24;;;;;;;3.58;1.00;;;;;;;19.13;37.98;101635.03;5072157;28;20045;-49
2023/03/28 04:59:58;;;;;;;4.25;0.80;;;;;;;19.12;38.17;101646.72;5072139;28;20052;-49
2023/03/28 05:02:44;;;;;;;2.15;0.90;;;;;;;19.13;37.90;101644.91;5080112;28;20075;-49
2023/03/28 05:05:16;;;;;;;2.75;0.73;;;;;;;19.12;38.02;101649.41;5072187;28;20052;-48
2023/03/28 05:07:44;;;;;;;1.95;0.60;;;;;;;19.12;37.94;101653.91;5071820;28;20067;-48
2023/03/28 05:10:12;;;;;;;2.17;1.05;;;;;;;19.11;37.92;101655.72;5071834;28;20501;-48
2023/03/28 05:12:40;;;;;;;2.78;1.10;;;;;;;19.12;38.01;101659.25;5071854;28;20059;-51
2023/03/28 05:15:08;;;;;;;2.50;0.80;;;;;;;19.10;37.91;101662.06;5072774;28;20044;-48
2023/03/28 05:17:48;;;;;;;2.25;0.90;;;;;;;19.10;37.88;101662.06;5071878;28;20041;-48
2023/03/28 05:20:26;;;;;;;2.35;0.95;;;;;;;19.10;37.90;101670.13;5075477;28;20059;-48
2023/03/28 05:22:56;;;;;;;2.13;0.82;;;;;;;19.09;37.83;101660.38;5075384;28;20052;-48
2023/03/28 05:25:24;;;;;;;1.98;0.75;;;;;;;19.08;38.04;101669.41;5075269;28;20055;-49
2023/03/28 05:27:52;;;;;;;2.95;0.98;;;;;;;19.09;38.05;101672.94;5075835;28;20044;-52
2023/03/28 05:30:19;;;;;;;3.05;0.88;;;;;;;19.09;37.85;101670.25;5075148;28;20044;-50
2023/03/28 05:32:52;;;;;;;3.17;1.02;;;;;;;19.08;38.04;101677.44;5075168;28;20049;-49
2023/03/28 05:35:19;;;;;;;2.42;0.93;;;;;;;19.08;37.89;101681.94;5074955;28;20048;-48
2023/03/28 05:37:49;;;;;;;2.63;1.15;;;;;;;19.08;37.95;101682.81;5075113;28;20051;-48
2023/03/28 05:40:17;;;;;;;2.30;1.08;;;;;;;19.08;38.09;101693.56;5074442;28;20390;-49
2023/03/28 05:42:44;;;;;;;3.35;0.82;;;;;;;19.07;37.80;101693.63;5076049;28;20052;-49
2023/03/28 05:45:15;;;;;;;2.08;0.90;;;;;;;19.07;37.84;101705.22;5074833;28;20379;-49
2023/03/28 05:47:55;;;;;;;2.22;0.85;;;;;;;19.07;37.96;101702.53;5074886;28;20051;-48
2023/03/28 05:50:25;;;;;;;2.25;1.08;;;;;;;19.07;37.85;101707.06;5074814;28;20402;-52
2023/03/28 05:52:59;;;;;;;2.75;1.10;;;;;;;19.07;37.94;101712.44;5074785;28;20059;-50
2023/03/28 05:55:26;;;;;;;1.48;0.60;;;;;;;19.07;38.01;101715.97;5074661;28;20048;-50
2023/03/28 05:57:56;;;;;;;2.30;1.00;;;;;;;19.05;37.99;101722.44;5075703;28;20504;-48
2023/03/28 06:00:30;;;;;;;3.45;0.90;;;;;;;19.04;37.70;101726.94;5074486;28;20052;-49
2023/03/28 06:02:57;;;;;;;1.77;0.80;;;;;;;19.05;38.04;101731.31;5074593;28;20395;-49
2023/03/28 06:05:35;;;;;;;3.10;0.75;;;;;;;19.05;37.91;101735.84;5074722;28;20060;-48
2023/03/28 06:08:09;;;;;;;1.80;1.00;;;;;;;19.05;37.86;101744.75;5074494;28;20486;-48
2023/03/28 06:10:37;;;;;;;2.88;0.85;;;;;;;19.04;37.99;101740.34;5074412;28;20048;-50
2023/03/28 06:13:20;;;;;;;2.30;1.05;;;;;;;19.05;38.06;101738.53;5074381;28;20483;-50
2023/03/28 06:15:48;;;;;;;2.85;0.82;;;;;;;19.05;37.84;101747.44;5074295;28;20387;-49
2023/03/28 06:18:17;;;;;;;1.90;0.77;;;;;;;19.05;37.84;101747.44;5074299;28;20062;-48
2023/03/28 06:20:47;;;;;;;2.25;0.90;;;;;;;19.04;37.82;101745.72;5074257;28;20059;-50
2023/03/28 06:23:15;;;;;;;2.80;1.00;;;;;;;19.07;37.71;101752.69;5074186;28;20048;-49
2023/03/28 06:25:42;;;;;;;8.45;0.93;;;;;;;19.07;37.66;101748.16;5073981;28;20052;-50
2023/03/28 06:28:11;;;;;;;2.45;0.80;;;;;;;19.06;37.85;101756.34;5073109;28;20052;-50
2023/03/28 06:30:58;;;;;;;1.83;0.77;;;;;;;19.06;37.64;101751.81;5074239;28;20048;-52
2023/03/28 06:33:26;;;;;;;2.33;0.98;;;;;;;19.07;37.55;101763.41;5074002;28;20053;-48
2023/03/28 06:35:54;;;;;;;2.53;1.10;;;;;;;19.07;37.79;101764.28;5073997;28;20057;-48
2023/03/28 06:38:23;;;;;;;3.03;0.93;;;;;;;19.08;37.53;101765.13;5073552;28;20049;-52
2023/03/28 06:40:51;;;;;;;1.90;0.70;;;;;;;19.07;37.79;101769.63;5073825;28;20052;-53
2023/03/28 06:43:19;;;;;;;2.28;0.90;;;;;;;19.08;37.81;101774.06;5073593;28;20059;-48
2023/03/28 06:46:03;;;;;;;2.30;0.90;;;;;;;19.08;37.69;101776.75;5073687;28;20053;-51
2023/03/28 06:48:32;;;;;;;2.17;0.80;;;;;;;19.08;37.67;101779.44;5073409;28;20075;-49
2023/03/28 06:51:34;;;;;;;1.77;0.70;;;;;;;19.09;37.54;101778.47;5076093;28;20055;-49
2023/03/28 06:54:02;;;;;;;2.00;0.90;;;;;;;19.09;37.61;101780.28;5073484;28;20415;-50
2023/03/28 06:56:30;;;;;;;1.77;0.90;;;;;;;19.09;37.72;101780.28;5074574;28;20059;-50
2023/03/28 06:58:58;;;;;;;4.30;0.98;;;;;;;19.10;37.77;101784.69;5073365;28;20049;-48
2023/03/28 07:01:29;;;;;;;7.03;1.70;;;;;;;19.10;37.64;101782.00;5073357;28;20514;-49
2023/03/28 07:04:09;;;;;;;5.20;1.42;;;;;;;19.10;37.73;101790.03;5073445;28;20057;-48
2023/03/28 07:06:37;;;;;;;5.18;1.05;;;;;;;19.11;37.84;101791.75;5073277;28;20056;-49
2023/03/28 07:09:04;;;;;;;1.98;1.25;;;;;;;19.12;37.77;101802.41;5073034;28;20053;-52
2023/03/28 07:11:51;;;;;;;3.13;1.13;;;;;;;19.12;37.24;101807.78;5073156;28;20059;-50
2023/03/28 07:14:18;;;;;;;4.55;1.25;;;;;;;19.11;34.79;101814.09;5073015;28;20053;-49
2023/03/28 07:16:45;;;;;;;3.85;1.38;;;;;;;19.09;33.18;101816.03;5072951;28;20052;-49
2023/03/28 07:19:13;;;;;;;7.07;1.80;;;;;;;19.04;31.26;101820.88;5073556;28;20051;-49
2023/03/28 07:21:43;;;;;;;4.57;1.75;;;;;;;18.97;30.44;101823.09;5072551;28;20052;-50
2023/03/28 07:24:11;;;;;;;5.95;1.50;;;;;;;18.88;30.77;101823.75;5073765;28;20044;-52
2023/03/28 07:26:50;;;;;;;4.68;1.48;;;;;;;18.85;30.97;101828.44;5072541;28;20063;-54
2023/03/28 07:29:27;;;;;;;8.23;1.98;;;;;;;18.82;31.07;101832.19;5072491;28;20059;-49
2023/03/28 07:31:56;;;;;;;3.30;1.55;;;;;;;18.81;31.38;101837.69;5072714;28;20061;-52
2023/03/28 07:34:25;;;;;;;5.47;1.67;;;;;;;18.82;31.75;101845.59;5072679;28;20487;-52
2023/03/28 07:36:52;;;;;;;4.47;1.67;;;;;;;18.86;32.59;101848.94;5071064;28;20044;-47
2023/03/28 07:39:46;;;;;;;3.90;1.67;;;;;;;18.90;32.31;101845.94;5072170;28;20486;-49
2023/03/28 07:42:16;;;;;;;4.95;1.60;;;;;;;18.94;31.84;101860.03;5072350;28;20052;-52
2023/03/28 07:44:44;;;;;;;4.22;1.80;;;;;;;18.96;31.49;101850.06;5071941;28;20402;-56
2023/03/28 07:47:11;;;;;;;4.50;1.58;;;;;;;18.98;31.57;101859.69;5072217;28;20430;-52
2023/03/28 07:49:39;;;;;;;6.13;1.30;;;;;;;19.01;31.12;101866.69;5072123;28;20059;-57
2023/03/28 07:52:08;;;;;;;6.93;1.25;;;;;;;19.03;30.04;101864.75;5068386;28;20045;-54
2023/03/28 07:54:36;;;;;;;3.25;1.00;;;;;;;19.07;30.76;101868.09;5073373;28;20044;-58
2023/03/28 07:57:04;;;;;;;3.70;1.48;;;;;;;19.08;30.26;101870.69;5072165;28;20483;-59
2023/03/28 07:59:50;;;;;;;3.35;1.20;;;;;;;19.11;29.56;101873.13;5079947;28;20052;-59
2023/03/28 08:02:17;;;;;;;5.55;1.27;;;;;;;19.14;31.28;101878.31;5071937;28;20060;-59
2023/03/28 08:04:45;;;;;;;3.40;1.35;;;;;;;19.17;35.15;101886.16;5072108;28;20055;-48
2023/03/28 08:07:15;;;;;;;4.35;1.25;;;;;;;19.18;33.62;101879.81;5072255;28;20053;-47
2023/03/28 08:09:46;;;;;;;2.35;0.85;;;;;;;19.20;32.23;101883.25;5072246;28;20049;-47
2023/03/28 08:12:20;;;;;;;4.63;0.90;;;;;;;19.22;33.48;101884.00;5072061;28;20114;-47
2023/03/28 08:14:48;;;;;;;5.05;1.38;;;;;;;19.24;33.83;101890.16;5073344;28;20049;-57
2023/03/28 08:17:20;;;;;;;3.28;1.00;;;;;;;19.25;33.74;101891.84;5072256;28;20529;-58
2023/03/28 08:19:49;;;;;;;2.78;0.90;;;;;;;19.26;34.11;101890.88;5071916;28;20048;-59
2023/03/28 08:22:23;;;;;;;;;;;;;;;19.27;31.72;101891.72;5079911;28;20079;-57
2023/03/28 08:25:10;;;;;;;5.68;1.27;;;;;;;19.25;30.74;101896.38;5079885;28;19920;-52
2023/03/28 08:27:37;;;;;;;5.68;1.65;;;;;;;19.26;32.63;101901.63;5071558;28;20063;-52
2023/03/28 08:30:11;;;;;;;6.25;1.63;;;;;;;19.25;31.31;101899.91;5073081;28;20057;-52
2023/03/28 08:32:49;;;;;;;4.70;1.23;;;;;;;19.24;30.04;101895.50;5072049;28;20415;-48
2023/03/28 08:35:17;;;;;;;3.50;1.02;;;;;;;19.23;31.25;101898.28;5071999;28;20056;-49
2023/03/28 08:37:47;;;;;;;2.53;1.00;;;;;;;19.24;31.73;101905.38;5071941;28;20052;-51
2023/03/28 08:40:17;;;;;;;4.22;1.13;;;;;;;19.23;31.21;101904.50;5070799;28;20076;-50
2023/03/28 08:42:49;;;;;;;3.90;1.05;;;;;;;19.25;32.00;101909.78;5072902;28;20403;-49
2023/03/28 08:45:40;;;;;;;2.75;0.65;;;;;;;19.26;31.87;101906.13;5071701;28;20045;-58
2023/03/28 08:48:10;;;;;;;3.47;1.00;;;;;;;19.27;31.50;101911.38;5072801;28;20048;-56
2023/03/28 08:50:57;;;;;;;2.85;0.90;;;;;;;19.27;31.51;101903.31;5072636;28;20513;-55
2023/03/28 08:53:33;;;;;;;5.32;1.10;;;;;;;19.29;31.45;101907.75;5072254;28;20059;-58
2023/03/28 08:56:03;;;;;;;4.07;0.85;;;;;;;19.29;31.01;101905.06;5075443;28;20075;-55
2023/03/28 08:58:49;;;;;;;4.30;0.95;;;;;;;19.29;31.31;101905.94;5075376;28;20051;-59
2023/03/28 09:01:20;;;;;;;4.30;1.27;;;;;;;19.29;31.17;101908.63;5059479;28;20491;-58
2023/03/28 09:03:49;;;;;;;4.85;0.88;;;;;;;19.30;31.03;101904.09;5075003;28;20064;-60
2023/03/28 09:06:20;;;;;;;2.33;0.75;;;;;;;19.29;30.99;101908.63;5075350;28;20402;-50
2023/03/28 09:08:56;;;;;;;2.00;0.73;;;;;;;19.30;31.80;101904.09;5076542;28;20047;-51
2023/03/28 09:11:43;;;;;;;2.30;0.80;;;;;;;19.30;32.37;101904.09;5075146;28;20493;-47
2023/03/28 09:14:45;;;;;;;3.50;0.95;;;;;;;19.32;31.97;101908.38;5075215;28;20407;-55
2023/03/28 09:17:22;;;;;;;4.18;0.75;;;;;;;19.34;32.34;101902.91;5076092;28;20111;-56
2023/03/28 09:20:19;;;;;;;3.25;0.70;;;;;;;19.35;32.09;101897.44;5074815;28;20367;-58
2023/03/28 09:23:01;;;;;;;2.50;0.70;;;;;;;19.36;32.31;101903.66;5075896;28;20122;-57
2023/03/28 09:25:50;;;;;;;2.40;1.15;;;;;;;19.36;31.73;101909.88;5075324;28;20052;-59
2023/03/28 09:28:42;;;;;;;2.05;0.80;;;;;;;19.36;31.20;101914.41;5074554;28;20053;-56
2023/03/28 09:31:12;;;;;;;1.17;0.50;;;;;;;19.36;31.47;101909.03;5075038;28;20053;-59
2023/03/28 09:33:44;;;;;;;1.23;0.45;;;;;;;19.36;31.52;101903.66;5075735;28;20048;-59
2023/03/28 09:36:22;;;;;;;3.05;0.55;;;;;;;19.36;32.80;101903.66;5074596;28;20059;-56
2023/03/28 09:39:06;;;;;;;6.65;0.85;;;;;;;19.37;32.61;101900.88;5074566;28;20045;-57
2023/03/28 09:42:04;;;;;;;3.85;0.80;;;;;;;19.39;32.10;101904.31;5074509;28;20049;-58
2023/03/28 09:45:03;;;;;;;3.42;0.95;;;;;;;19.40;31.55;101905.16;5075498;28;20055;-49
2023/03/28 09:47:53;;;;;;;2.95;0.70;;;;;;;19.39;31.69;101907.00;5075361;28;20048;-52
2023/03/28 09:50:25;;;;;;;2.35;1.15;;;;;;;19.33;27.50;101910.13;5073979;28;20045;-52
2023/03/28 09:52:57;;;;;;;2.97;0.80;;;;;;;19.27;28.56;101907.84;5074248;28;20052;-53
2023/03/28 09:55:29;;;;;;;4.35;0.60;;;;;;;19.24;28.94;101908.94;5075800;28;20071;-54
2023/03/28 09:58:08;;;;;;;;;;;;;;;19.25;29.47;101907.97;5074409;28;20055;-49
2023/03/28 10:00:58;;;;;;;3.67;0.93;;;;;;;19.25;30.75;101902.59;5055756;28;19920;-51
2023/03/28 10:03:59;;;;;;;2.35;0.77;;;;;;;19.27;31.25;101905.16;5055097;28;20057;-51
2023/03/28 10:06:49;;;;;;;3.10;0.60;;;;;;;19.30;31.15;101909.47;5054372;28;20053;-51
2023/03/28 10:09:23;;;;;;;1.33;0.75;;;;;;;19.30;31.48;101904.97;5055382;28;20049;-54
2023/03/28 10:12:09;;;;;;;1.80;0.60;;;;;;;19.31;31.61;101913.88;5054330;28;20056;-53
2023/03/28 10:14:40;;;;;;;1.33;0.63;;;;;;;19.33;31.86;101914.63;5055083;28;20053;-54
2023/03/28 10:17:31;;;;;;;6.13;0.80;;;;;;;19.35;32.06;101915.38;5054349;28;20048;-48
2023/03/28 10:20:11;;;;;;;4.28;0.50;;;;;;;19.35;32.60;101913.53;5053779;28;20411;-48
2023/03/28 10:22:39;;;;;;;2.83;0.70;;;;;;;19.40;32.82;101918.59;5072385;28;20067;-48
2023/03/28 10:25:19;;;;;;;2.00;0.60;;;;;;;19.40;32.60;101915.91;5075077;28;20049;-52
2023/03/28 10:27:51;;;;;;;2.78;0.85;;;;;;;19.40;32.67;101910.53;5073379;28;20048;-55
2023/03/28 10:30:28;;;;;;;2.45;0.77;;;;;;;19.41;32.52;101914.97;5073692;28;20061;-53
2023/03/28 10:33:10;;;;;;;1.52;0.80;;;;;;;19.40;32.94;101911.41;5073465;28;20525;-49
2023/03/28 10:35:54;;;;;;;2.03;0.75;;;;;;;19.41;32.88;101917.66;5073649;28;20052;-51
2023/03/28 10:38:24;;;;;;;1.90;0.50;;;;;;;19.41;33.31;101918.50;5073620;28;20044;-49
2023/03/28 10:41:20;;;;;;;2.40;0.68;;;;;;;19.43;33.70;101913.88;5074482;28;20048;-49
2023/03/28 10:44:17;;;;;;;2.60;0.82;;;;;;;19.43;33.50;101910.34;5073517;28;20048;-50
2023/03/28 10:47:10;;;;;;;2.42;0.60;;;;;;;19.43;33.25;101915.72;5073222;28;20067;-52
2023/03/28 10:49:49;;;;;;;2.78;0.75;;;;;;;19.42;33.15;101914.84;5073356;28;20040;-54
2023/03/28 10:52:47;;;;;;;2.47;0.95;;;;;;;19.41;33.27;101913.13;5073355;28;20051;-52
2023/03/28 10:55:30;;;;;;;4.20;0.85;;;;;;;19.42;33.50;101911.31;5073533;28;20477;-55
2023/03/28 10:58:33;;;;;;;3.78;0.80;;;;;;;19.42;34.68;101905.94;5081074;28;20537;-51
2023/03/28 11:01:23;;;;;;;1.98;0.68;;;;;;;19.43;35.40;101907.66;5073011;28;20052;-48
2023/03/28 11:04:10;;;;;;;1.30;0.60;;;;;;;19.40;33.89;101908.72;5072990;28;20048;-54
2023/03/28 11:06:45;;;;;;;3.60;0.47;;;;;;;19.40;33.20;101907.84;5074058;28;20060;-55
2023/03/28 11:09:28;;;;;;;1.65;0.40;;;;;;;19.41;33.49;101909.59;5073001;28;20060;-53
2023/03/28 11:12:25;;;;;;;1.88;0.57;;;;;;;19.40;33.33;101911.41;5080751;28;20064;-56
2023/03/28 11:15:18;;;;;;;2.08;0.60;;;;;;;19.40;33.02;101914.09;5072624;28;20059;-55
2023/03/28 11:18:36;;;;;;;1.20;0.68;;;;;;;19.40;33.86;101905.16;5072220;28;20482;-55
2023/03/28 11:21:48;;;;;;;3.10;0.70;;;;;;;19.41;34.68;101909.59;5069768;28;20056;-53
2023/03/28 11:24:51;;;;;;;2.15;0.70;;;;;;;19.41;36.56;101920.34;5072510;28;20051;-54
2023/03/28 11:27:44;;;;;;;2.33;0.70;;;;;;;19.41;37.42;101917.66;5071094;28;20052;-50
2023/03/28 11:30:28;;;;;;;2.05;0.57;;;;;;;19.41;37.57;101906.91;5051978;28;20049;-53
2023/03/28 11:33:21;;;;;;;2.58;0.75;;;;;;;19.41;36.48;101904.22;5052538;28;20494;-48
2023/03/28 11:36:07;;;;;;;2.17;0.88;;;;;;;19.43;37.76;101907.66;5052678;28;20056;-50
2023/03/28 11:38:53;;;;;;;2.38;0.60;;;;;;;19.43;40.07;101904.97;5052470;28;20053;-49
2023/03/28 11:41:31;;;;;;;2.55;0.98;;;;;;;19.43;38.79;101896.91;5052339;28;20049;-49
2023/03/28 11:44:28;;;;;;;3.08;0.82;;;;;;;19.42;36.14;101895.19;5052535;28;20045;-48
2023/03/28 11:47:07;;;;;;;4.30;0.73;;;;;;;19.43;36.79;101894.22;5053271;28;20056;-49
2023/03/28 11:50:06;;;;;;;3.25;0.65;;;;;;;19.44;37.03;101882.50;5052190;28;20068;-47
2023/03/28 11:53:23;;;;;;;1.67;0.68;;;;;;;19.43;39.79;101878.97;5051668;28;20160;-48
2023/03/28 11:56:16;;;;;;;4.35;0.93;;;;;;;19.42;39.93;101874.56;5051274;28;20049;-47
2023/03/28 11:59:06;;;;;;;3.53;0.70;;;;;;;19.41;39.83;101875.53;5051875;28;20059;-48
2023/03/28 12:01:38;;;;;;;4.78;0.73;;;;;;;19.40;40.23;101878.31;5051992;28;20053;-47
2023/03/28 12:04:27;;;;;;;2.92;0.77;;;;;;;19.39;39.53;101876.59;5051995;28;20057;-46
2023/03/28 12:07:04;;;;;;;4.57;0.60;;;;;;;19.37;39.16;101867.81;5053379;28;20103;-49
2023/03/28 12:10:06;;;;;;;2.05;0.50;;;;;;;19.36;40.33;101872.28;5052176;28;20064;-47
2023/03/28 12:12:54;;;;;;;1.58;0.60;;;;;;;19.35;39.96;101857.16;5051803;28;20057;-47
2023/03/28 12:15:47;;;;;;;1.40;0.50;;;;;;;19.34;39.83;101850.06;5052234;28;20410;-51
2023/03/28 12:18:35;;;;;;;1.85;0.60;;;;;;;19.34;37.84;101849.22;5051599;28;20056;-49